createdAt,value
2019-01-14T00:00:27.344Z,4.03
2019-01-14T00:02:57.068Z,3.17
2019-01-14T00:05:26.181Z,3.30
2019-01-14T00:07:55.647Z,3.43
2019-01-14T00:10:25.135Z,2.80
2019-01-14T00:12:54.644Z,2.60
2019-01-14T00:15:24.244Z,1.90
2019-01-14T00:17:53.366Z,1.85
2019-01-14T00:20:22.793Z,1.60
2019-01-14T00:22:51.894Z,1.13
2019-01-14T00:25:21.062Z,1.77
2019-01-14T00:27:50.163Z,1.50
2019-01-14T00:30:19.290Z,1.60
2019-01-14T00:32:48.407Z,1.62
2019-01-14T00:35:17.929Z,1.67
2019-01-14T00:37:46.996Z,1.57
2019-01-14T00:40:17.534Z,1.60
2019-01-14T00:42:47.012Z,1.45
2019-01-14T00:45:16.194Z,1.40
2019-01-14T00:47:45.345Z,1.30
2019-01-14T00:50:16.060Z,1.43
2019-01-14T00:52:45.476Z,1.63
2019-01-14T00:55:14.800Z,1.07
2019-01-14T00:57:43.980Z,2.70
2019-01-14T01:00:24.750Z,1.80
2019-01-14T01:02:54.188Z,1.70
2019-01-14T01:05:23.287Z,2.87
2019-01-14T01:07:52.725Z,1.50
2019-01-14T01:10:22.689Z,2.22
2019-01-14T01:12:51.833Z,1.80
2019-01-14T01:15:21.056Z,2.20
2019-01-14T01:17:50.200Z,1.72
2019-01-14T01:20:21.306Z,2.40
2019-01-14T01:22:50.403Z,2.63
2019-01-14T01:25:19.616Z,1.93
2019-01-14T01:27:49.028Z,2.37
2019-01-14T01:30:19.354Z,2.43
2019-01-14T01:32:48.692Z,2.55
2019-01-14T01:35:18.008Z,2.63
2019-01-14T01:37:47.216Z,2.33
2019-01-14T01:40:19.988Z,2.80
2019-01-14T01:42:49.125Z,2.42
2019-01-14T01:45:18.533Z,2.42
2019-01-14T01:47:48.053Z,2.80
2019-01-14T01:50:18.994Z,2.67
2019-01-14T01:52:48.471Z,2.70
2019-01-14T01:55:17.696Z,2.93
2019-01-14T01:57:47.189Z,2.97
2019-01-14T02:00:20.723Z,3.63
2019-01-14T02:02:50.489Z,2.63
2019-01-14T02:05:20.522Z,3.13
2019-01-14T02:07:49.798Z,3.30
2019-01-14T02:10:23.317Z,3.37
2019-01-14T02:12:52.442Z,3.33
2019-01-14T02:15:22.424Z,3.20
2019-01-14T02:17:52.173Z,4.07
2019-01-14T02:20:22.080Z,3.57
2019-01-14T02:22:51.439Z,2.90
2019-01-14T02:25:20.796Z,4.07
2019-01-14T02:27:50.144Z,2.90
2019-01-14T02:30:21.594Z,3.73
2019-01-14T02:32:50.731Z,3.55
2019-01-14T02:35:19.854Z,3.33
2019-01-14T02:37:48.972Z,3.30
2019-01-14T02:40:19.985Z,3.62
2019-01-14T02:42:49.374Z,3.03
2019-01-14T02:45:18.528Z,4.20
2019-01-14T02:47:47.940Z,3.20
2019-01-14T02:50:17.790Z,3.10
2019-01-14T02:52:46.862Z,3.20
2019-01-14T02:55:16.101Z,3.35
2019-01-14T02:57:45.558Z,3.40
2019-01-14T03:00:18.460Z,3.43
2019-01-14T03:02:47.527Z,4.40
2019-01-14T03:05:16.598Z,3.20
2019-01-14T03:07:45.712Z,3.40
2019-01-14T03:10:15.242Z,3.13
2019-01-14T03:12:44.424Z,3.05
2019-01-14T03:15:14.408Z,3.63
2019-01-14T03:17:43.543Z,4.13
2019-01-14T03:20:13.484Z,3.97
2019-01-14T03:22:42.707Z,3.83
2019-01-14T03:25:13.124Z,5.10
2019-01-14T03:27:42.220Z,3.40
2019-01-14T03:30:13.675Z,3.67
2019-01-14T03:32:42.821Z,2.40
2019-01-14T03:35:12.188Z,2.73
2019-01-14T03:37:41.502Z,3.23
2019-01-14T03:40:13.216Z,3.92
2019-01-14T03:42:42.393Z,3.37
2019-01-14T03:45:12.464Z,3.87
2019-01-14T03:47:41.536Z,2.70
2019-01-14T03:50:21.016Z,2.67
2019-01-14T03:52:50.366Z,3.77
2019-01-14T03:55:19.552Z,2.27
2019-01-14T03:57:50.107Z,2.63
2019-01-14T04:00:19.477Z,2.90
2019-01-14T04:02:48.602Z,2.22
2019-01-14T04:05:17.765Z,2.13
2019-01-14T04:07:47.141Z,2.30
2019-01-14T04:10:17.043Z,3.27
2019-01-14T04:12:46.501Z,2.63
2019-01-14T04:15:17.088Z,2.07
2019-01-14T04:17:46.507Z,2.20
2019-01-14T04:20:17.063Z,2.55
2019-01-14T04:22:46.344Z,2.07
2019-01-14T04:25:15.640Z,2.17
2019-01-14T04:27:45.124Z,2.60
2019-01-14T04:30:17.221Z,2.27
2019-01-14T04:32:47.205Z,2.10
2019-01-14T04:35:17.030Z,2.37
2019-01-14T04:37:46.372Z,2.50
2019-01-14T04:40:15.978Z,2.30
2019-01-14T04:42:45.192Z,2.07
2019-01-14T04:45:14.788Z,2.20
2019-01-14T04:47:44.302Z,2.40
2019-01-14T04:50:16.648Z,1.57
2019-01-14T04:52:45.998Z,2.00
2019-01-14T04:55:15.167Z,1.90
2019-01-14T04:57:44.324Z,1.80
2019-01-14T05:00:19.374Z,2.22
2019-01-14T05:02:49.002Z,1.73
2019-01-14T05:05:18.519Z,1.97
2019-01-14T05:07:47.957Z,1.63
2019-01-14T05:10:18.498Z,1.70
2019-01-14T05:12:48.201Z,3.20
2019-01-14T05:15:17.341Z,2.17
2019-01-14T05:17:46.481Z,1.63
2019-01-14T05:20:21.844Z,1.80
2019-01-14T05:22:51.016Z,1.80
2019-01-14T05:25:20.541Z,1.97
2019-01-14T05:27:49.812Z,2.40
2019-01-14T05:30:18.936Z,1.90
2019-01-14T05:32:48.051Z,1.80
2019-01-14T05:35:17.485Z,1.83
2019-01-14T05:37:47.024Z,1.63
2019-01-14T05:40:18.933Z,2.25
2019-01-14T05:42:48.077Z,2.00
2019-01-14T05:45:17.754Z,1.93
2019-01-14T05:47:47.377Z,1.73
2019-01-14T05:50:17.284Z,1.87
2019-01-14T05:52:46.830Z,1.80
2019-01-14T05:55:16.357Z,2.20
2019-01-14T05:57:47.957Z,1.90
2019-01-14T06:00:28.928Z,1.92
2019-01-14T06:02:58.439Z,1.80
2019-01-14T06:05:27.842Z,2.00
2019-01-14T06:07:57.047Z,2.10
2019-01-14T06:10:27.447Z,2.43
2019-01-14T06:12:56.697Z,2.67
2019-01-14T06:15:26.693Z,2.30
2019-01-14T06:17:56.404Z,2.33
2019-01-14T06:20:28.417Z,2.67
2019-01-14T06:22:57.525Z,2.10
2019-01-14T06:25:26.788Z,2.40
2019-01-14T06:27:55.913Z,2.37
2019-01-14T06:30:28.372Z,2.27
2019-01-14T06:32:57.475Z,2.42
2019-01-14T06:35:27.713Z,2.13
2019-01-14T06:37:57.112Z,2.35
2019-01-14T06:40:26.661Z,3.55
2019-01-14T06:42:56.471Z,2.60
2019-01-14T06:45:26.444Z,2.55
2019-01-14T06:47:55.876Z,2.30
2019-01-14T06:50:25.093Z,2.57
2019-01-14T06:52:54.193Z,2.52
2019-01-14T06:55:23.265Z,2.97
2019-01-14T06:57:52.315Z,3.00
2019-01-14T07:00:24.984Z,3.63
2019-01-14T07:02:54.442Z,3.27
2019-01-14T07:05:24.324Z,3.70
2019-01-14T07:07:59.495Z,3.07
2019-01-14T07:10:26.837Z,3.17
2019-01-14T07:12:56.279Z,3.15
2019-01-14T07:15:25.780Z,2.73
2019-01-14T07:17:55.125Z,3.97
2019-01-14T07:20:24.244Z,2.33
2019-01-14T07:22:53.689Z,2.95
2019-01-14T07:25:22.780Z,2.17
2019-01-14T07:27:52.176Z,3.40
2019-01-14T07:30:22.606Z,2.90
2019-01-14T07:32:52.002Z,1.93
2019-01-14T07:35:21.981Z,2.07
2019-01-14T07:37:52.145Z,2.67
2019-01-14T07:40:22.118Z,2.43
2019-01-14T07:42:52.032Z,2.25
2019-01-14T07:45:21.377Z,2.85
2019-01-14T07:47:50.561Z,2.63
2019-01-14T07:50:20.063Z,3.13
2019-01-14T07:52:49.791Z,3.23
2019-01-14T07:55:19.283Z,4.63
2019-01-14T07:57:48.489Z,4.57
2019-01-14T08:00:25.443Z,4.53
2019-01-14T08:02:55.188Z,4.53
2019-01-14T08:05:24.500Z,3.90
2019-01-14T08:07:54.490Z,5.57
2019-01-14T08:10:23.660Z,4.50
2019-01-14T08:12:53.980Z,4.87
2019-01-14T08:15:23.825Z,4.95
2019-01-14T08:17:53.467Z,5.63
2019-01-14T08:20:22.597Z,6.95
2019-01-14T08:22:51.704Z,5.77
2019-01-14T08:25:21.361Z,5.63
2019-01-14T08:27:50.422Z,5.93
2019-01-14T08:30:23.532Z,6.20
2019-01-14T08:32:53.147Z,4.67
2019-01-14T08:35:22.370Z,5.00
2019-01-14T08:37:51.971Z,5.17
2019-01-14T08:40:21.017Z,5.30
2019-01-14T08:42:50.364Z,5.33
2019-01-14T08:45:19.852Z,4.50
2019-01-14T08:47:48.944Z,5.17
2019-01-14T08:50:21.056Z,4.37
2019-01-14T08:52:50.957Z,4.27
2019-01-14T08:55:20.176Z,4.70
2019-01-14T08:57:54.508Z,3.77
2019-01-14T09:00:21.752Z,5.10
2019-01-14T09:02:51.106Z,4.27
2019-01-14T09:05:20.741Z,5.00
2019-01-14T09:07:50.122Z,5.17
2019-01-14T09:10:21.755Z,5.70
2019-01-14T09:12:50.953Z,4.62
2019-01-14T09:15:20.115Z,5.20
2019-01-14T09:17:49.430Z,4.13
2019-01-14T09:20:20.068Z,4.13
2019-01-14T09:22:49.150Z,4.03
2019-01-14T09:25:18.500Z,4.43
2019-01-14T09:27:47.740Z,4.30
2019-01-14T09:30:19.500Z,3.90
2019-01-14T09:32:49.156Z,3.60
2019-01-14T09:35:18.774Z,3.40
2019-01-14T09:37:47.940Z,2.63
2019-01-14T09:40:18.632Z,3.10
2019-01-14T09:42:47.939Z,3.60
2019-01-14T09:45:17.415Z,3.17
2019-01-14T09:47:46.598Z,4.73
2019-01-14T09:50:16.189Z,3.43
2019-01-14T09:52:45.725Z,3.87
2019-01-14T09:55:16.865Z,3.67
2019-01-14T09:57:46.204Z,3.40
2019-01-14T10:00:15.637Z,3.45
2019-01-14T10:02:45.798Z,3.52
2019-01-14T10:05:16.912Z,3.80
2019-01-14T10:07:46.649Z,4.55
2019-01-14T10:10:16.812Z,4.15
2019-01-14T10:12:46.056Z,4.25
2019-01-14T10:15:19.949Z,4.10
2019-01-14T10:17:51.840Z,5.27
2019-01-14T10:20:21.309Z,3.70
2019-01-14T10:22:50.430Z,4.03
2019-01-14T10:25:19.604Z,3.57
2019-01-14T10:27:48.780Z,3.53
2019-01-14T10:30:18.453Z,3.63
2019-01-14T10:32:47.957Z,3.60
2019-01-14T10:35:17.456Z,3.98
2019-01-14T10:37:46.656Z,3.42
2019-01-14T10:40:16.396Z,3.40
2019-01-14T10:42:45.528Z,3.98
2019-01-14T10:45:20.796Z,4.13
2019-01-14T10:47:50.109Z,3.60
2019-01-14T10:50:20.260Z,2.70
2019-01-14T10:52:49.725Z,2.80
2019-01-14T10:55:18.847Z,2.07
2019-01-14T10:57:48.640Z,2.30
2019-01-14T11:00:26.536Z,1.90
2019-01-14T11:02:55.909Z,1.97
2019-01-14T11:05:28.385Z,2.13
2019-01-14T11:07:57.528Z,2.00
2019-01-14T11:10:26.925Z,2.27
2019-01-14T11:12:55.973Z,2.17
2019-01-14T11:15:25.436Z,2.50
2019-01-14T11:17:54.536Z,2.20
2019-01-14T11:20:26.224Z,2.10
2019-01-14T11:22:55.732Z,2.10
2019-01-14T11:25:25.817Z,2.00
2019-01-14T11:27:54.920Z,2.40
2019-01-14T11:30:30.287Z,2.43
2019-01-14T11:32:59.650Z,2.13
2019-01-14T11:35:28.792Z,1.70
2019-01-14T11:37:57.944Z,2.10
2019-01-14T11:40:30.320Z,2.00
2019-01-14T11:43:00.025Z,2.30
2019-01-14T11:45:29.181Z,1.93
2019-01-14T11:47:58.345Z,1.83
2019-01-14T11:50:27.443Z,1.70
2019-01-14T11:52:56.899Z,1.73
2019-01-14T11:55:26.064Z,1.40
2019-01-14T11:57:55.515Z,1.37
2019-01-14T12:00:26.049Z,1.60
2019-01-14T12:02:55.178Z,1.60
2019-01-14T12:05:24.317Z,1.87
2019-01-14T12:07:54.258Z,1.60
2019-01-14T12:10:23.392Z,1.87
2019-01-14T12:12:52.872Z,1.90
2019-01-14T12:15:23.888Z,1.60
2019-01-14T12:17:53.192Z,1.97
2019-01-14T12:20:22.704Z,1.70
2019-01-14T12:22:51.828Z,1.30
2019-01-14T12:25:21.332Z,1.80
2019-01-14T12:27:50.609Z,2.00
2019-01-14T12:30:34.500Z,2.03
2019-01-14T12:33:05.138Z,2.10
2019-01-14T12:35:34.628Z,2.03
2019-01-14T12:38:05.288Z,1.37
2019-01-14T12:40:34.673Z,2.47
2019-01-14T12:43:04.800Z,1.63
2019-01-14T12:45:34.983Z,1.80
2019-01-14T12:48:05.336Z,1.90
2019-01-14T12:50:35.012Z,2.00
2019-01-14T12:53:05.298Z,2.20
2019-01-14T12:55:35.240Z,2.20
2019-01-14T12:58:05.315Z,1.90
2019-01-14T13:00:34.996Z,2.13
2019-01-14T13:03:05.606Z,2.13
2019-01-14T13:05:35.038Z,1.80
2019-01-14T13:08:05.122Z,1.27
2019-01-14T13:10:35.096Z,2.30
2019-01-14T13:13:05.299Z,2.67
2019-01-14T13:15:35.276Z,2.30
2019-01-14T13:18:05.760Z,3.13
2019-01-14T13:20:35.631Z,2.92
2019-01-14T13:23:05.750Z,2.90
2019-01-14T13:25:35.596Z,2.98
2019-01-14T13:28:05.874Z,2.70
2019-01-14T13:30:35.804Z,3.23
2019-01-14T13:33:05.950Z,2.60
2019-01-14T13:35:37.304Z,2.33
2019-01-14T13:38:06.978Z,2.60
2019-01-14T13:40:36.162Z,2.70
2019-01-14T13:43:06.204Z,2.40
2019-01-14T13:45:36.265Z,2.83
2019-01-14T13:48:06.349Z,2.83
2019-01-14T13:50:36.700Z,3.00
2019-01-14T13:53:06.648Z,3.37
2019-01-14T13:55:36.584Z,2.70
2019-01-14T13:58:06.545Z,3.10
2019-01-14T14:00:36.574Z,2.40
2019-01-14T14:03:06.625Z,2.37
2019-01-14T14:05:36.668Z,2.53
2019-01-14T14:08:07.656Z,2.47
2019-01-14T14:10:37.205Z,2.67
2019-01-14T14:13:06.976Z,2.12
2019-01-14T14:15:37.033Z,2.00
2019-01-14T14:18:07.029Z,2.03
2019-01-14T14:20:37.181Z,2.03
2019-01-14T14:23:07.205Z,1.57
2019-01-14T14:25:37.620Z,1.60
2019-01-14T14:28:07.555Z,1.50
2019-01-14T14:30:38.975Z,1.62
2019-01-14T14:33:08.486Z,1.60
2019-01-14T14:35:38.524Z,1.40
2019-01-14T14:38:08.984Z,1.83
2019-01-14T14:40:38.148Z,1.50
2019-01-14T14:43:08.161Z,1.25
2019-01-14T14:45:38.240Z,2.55
2019-01-14T14:48:08.677Z,1.52
2019-01-14T14:50:38.347Z,1.72
2019-01-14T14:53:08.334Z,1.70
2019-01-14T14:55:38.125Z,2.07
2019-01-14T14:58:08.125Z,1.70
2019-01-14T15:00:38.171Z,1.50
2019-01-14T15:03:08.310Z,2.73
2019-01-14T15:05:38.420Z,1.67
2019-01-14T15:08:08.458Z,1.90
2019-01-14T15:10:38.441Z,2.00
2019-01-14T15:13:08.470Z,1.73
2019-01-14T15:15:38.469Z,1.50
2019-01-14T15:18:08.516Z,2.17
2019-01-14T15:20:38.856Z,1.37
2019-01-14T15:23:08.849Z,2.10
2019-01-14T15:25:38.987Z,1.70
2019-01-14T15:28:08.983Z,1.73
2019-01-14T15:30:39.177Z,1.77
2019-01-14T15:33:09.737Z,1.95
2019-01-14T15:35:39.123Z,2.20
2019-01-14T15:38:09.588Z,2.50
2019-01-14T15:40:39.532Z,2.60
2019-01-14T15:43:09.825Z,2.47
2019-01-14T15:45:39.828Z,2.92
2019-01-14T15:48:09.613Z,2.27
2019-01-14T15:50:39.744Z,1.80
2019-01-14T15:53:09.705Z,1.40
2019-01-14T15:55:39.692Z,1.40
2019-01-14T15:58:09.872Z,1.63
2019-01-14T16:00:40.247Z,1.90
2019-01-14T16:03:10.085Z,1.60
2019-01-14T16:05:40.630Z,2.13
2019-01-14T16:08:10.455Z,1.50
2019-01-14T16:10:40.183Z,1.40
2019-01-14T16:13:10.550Z,1.57
2019-01-14T16:15:40.363Z,1.73
2019-01-14T16:18:10.373Z,1.57
2019-01-14T16:20:40.705Z,1.50
2019-01-14T16:23:10.908Z,1.70
2019-01-14T16:25:40.785Z,1.70
2019-01-14T16:28:10.786Z,1.93
2019-01-14T16:30:41.161Z,1.57
2019-01-14T16:33:10.862Z,1.72
2019-01-14T16:35:41.197Z,2.13
2019-01-14T16:38:11.221Z,2.42
2019-01-14T16:40:41.195Z,1.60
2019-01-14T16:43:11.073Z,1.50
2019-01-14T16:45:41.106Z,1.80
2019-01-14T16:48:11.168Z,2.03
2019-01-14T16:50:41.409Z,2.17
2019-01-14T16:53:11.583Z,2.25
2019-01-14T16:55:50.498Z,1.70
2019-01-14T16:58:19.608Z,1.53
2019-01-14T17:00:48.941Z,1.80
2019-01-14T17:03:18.065Z,2.03
2019-01-14T17:05:47.121Z,1.90
2019-01-14T17:08:16.228Z,1.90
2019-01-14T17:10:45.645Z,1.90
2019-01-14T17:13:16.080Z,2.00
2019-01-14T17:15:45.311Z,1.60
2019-01-14T17:18:14.390Z,1.60
2019-01-14T17:20:43.497Z,1.50
2019-01-14T17:23:13.063Z,1.90
2019-01-14T17:25:42.468Z,1.87
2019-01-14T17:28:12.479Z,1.77
2019-01-14T17:30:41.633Z,2.03
2019-01-14T17:33:10.753Z,1.80
2019-01-14T17:35:40.166Z,1.27
2019-01-14T17:38:09.294Z,1.50
2019-01-14T17:40:38.384Z,1.80
2019-01-14T17:43:08.016Z,1.33
2019-01-14T17:45:37.121Z,1.70
2019-01-14T17:48:06.235Z,1.80
2019-01-14T17:50:35.330Z,1.83
2019-01-14T17:53:05.004Z,1.60
2019-01-14T17:55:34.404Z,2.13
2019-01-14T17:58:06.034Z,2.03
2019-01-14T18:00:35.129Z,1.77
2019-01-14T18:03:04.340Z,2.07
2019-01-14T18:05:34.110Z,2.17
2019-01-14T18:08:03.561Z,2.07
2019-01-14T18:10:39.670Z,1.33
2019-01-14T18:13:03.817Z,2.10
2019-01-14T18:15:33.168Z,1.70
2019-01-14T18:18:02.225Z,1.77
2019-01-14T18:20:31.344Z,1.73
2019-01-14T18:23:00.475Z,1.50
2019-01-14T18:25:29.881Z,2.40
2019-01-14T18:27:59.058Z,1.90
2019-01-14T18:30:28.437Z,1.90
2019-01-14T18:32:57.757Z,2.20
2019-01-14T18:35:27.200Z,2.00
2019-01-14T18:37:56.277Z,2.03
2019-01-14T18:40:25.725Z,2.10
2019-01-14T18:42:54.873Z,2.43
2019-01-14T18:45:23.965Z,2.03
2019-01-14T18:47:53.141Z,1.90
2019-01-14T18:50:23.039Z,2.37
2019-01-14T18:52:53.071Z,1.82
2019-01-14T18:55:22.145Z,1.80
2019-01-14T18:57:51.619Z,1.73
2019-01-14T19:00:22.406Z,1.70
2019-01-14T19:02:51.671Z,1.70
2019-01-14T19:05:21.683Z,1.60
2019-01-14T19:07:50.790Z,2.87
2019-01-14T19:10:20.500Z,1.70
2019-01-14T19:12:49.720Z,2.10
2019-01-14T19:15:20.383Z,1.90
2019-01-14T19:17:50.141Z,2.17
2019-01-14T19:20:27.400Z,1.90
2019-01-14T19:22:57.115Z,1.83
2019-01-14T19:25:27.386Z,1.70
2019-01-14T19:27:56.501Z,1.83
2019-01-14T19:30:25.969Z,1.87
2019-01-14T19:32:55.163Z,1.80
2019-01-14T19:35:24.340Z,1.77
2019-01-14T19:37:53.501Z,1.90
2019-01-14T19:40:22.797Z,2.00
2019-01-14T19:42:52.157Z,2.37
2019-01-14T19:45:22.221Z,2.00
2019-01-14T19:47:51.786Z,2.30
2019-01-14T19:50:22.898Z,2.20
2019-01-14T19:52:52.100Z,2.30
2019-01-14T19:55:21.195Z,1.97
2019-01-14T19:57:50.531Z,1.90
2019-01-14T20:00:25.169Z,3.27
2019-01-14T20:02:54.648Z,2.20
2019-01-14T20:05:23.967Z,2.07
2019-01-14T20:07:55.105Z,2.20
2019-01-14T20:10:24.332Z,2.43
2019-01-14T20:12:53.917Z,2.50
2019-01-14T20:15:23.021Z,2.70
2019-01-14T20:17:52.341Z,2.67
2019-01-14T20:20:21.459Z,3.00
2019-01-14T20:22:50.784Z,2.50
2019-01-14T20:25:20.176Z,2.57
2019-01-14T20:27:49.626Z,2.50
2019-01-14T20:30:23.182Z,3.00
2019-01-14T20:32:52.690Z,3.83
2019-01-14T20:35:21.830Z,5.03
2019-01-14T20:37:50.946Z,5.00
2019-01-14T20:40:20.367Z,5.03
2019-01-14T20:42:49.481Z,5.33
2019-01-14T20:45:18.673Z,4.03
2019-01-14T20:47:47.997Z,3.93
2019-01-14T20:50:18.406Z,3.53
2019-01-14T20:52:48.149Z,3.90
2019-01-14T20:55:17.285Z,4.13
2019-01-14T20:57:46.356Z,4.20
2019-01-14T21:00:23.887Z,3.83
2019-01-14T21:02:53.333Z,4.07
2019-01-14T21:05:23.121Z,3.77
2019-01-14T21:07:52.302Z,3.83
2019-01-14T21:10:21.405Z,3.63
2019-01-14T21:12:51.262Z,3.50
2019-01-14T21:15:20.969Z,3.17
2019-01-14T21:17:50.097Z,2.93
2019-01-14T21:20:23.978Z,2.27
2019-01-14T21:22:54.101Z,2.10
2019-01-14T21:25:23.261Z,2.30
2019-01-14T21:27:52.465Z,2.40
2019-01-14T21:30:23.651Z,1.70
2019-01-14T21:32:53.143Z,2.10
2019-01-14T21:35:22.676Z,2.03
2019-01-14T21:37:53.877Z,2.07
2019-01-14T21:40:23.529Z,2.37
2019-01-14T21:42:52.653Z,2.23
2019-01-14T21:45:22.012Z,2.27
2019-01-14T21:47:51.105Z,2.40
2019-01-14T21:50:20.806Z,2.40
2019-01-14T21:52:49.952Z,2.33
2019-01-14T21:55:21.165Z,2.63
2019-01-14T21:57:50.300Z,2.37
2019-01-14T22:00:21.887Z,2.13
2019-01-14T22:02:51.702Z,2.37
2019-01-14T22:05:21.452Z,2.70
2019-01-14T22:07:50.652Z,2.30
2019-01-14T22:10:21.981Z,2.63
2019-01-14T22:12:51.092Z,2.17
2019-01-14T22:15:20.561Z,3.30
2019-01-14T22:17:50.987Z,2.83
2019-01-14T22:20:22.293Z,2.23
2019-01-14T22:22:51.850Z,2.20
2019-01-14T22:25:21.360Z,2.23
2019-01-14T22:27:50.496Z,2.40
2019-01-14T22:30:22.117Z,2.73
2019-01-14T22:32:51.301Z,2.47
2019-01-14T22:35:20.482Z,2.90
2019-01-14T22:37:49.654Z,2.60
2019-01-14T22:40:19.124Z,2.53
2019-01-14T22:42:48.558Z,3.03
2019-01-14T22:45:17.975Z,3.30
2019-01-14T22:47:47.417Z,3.47
2019-01-14T22:50:17.137Z,3.30
2019-01-14T22:52:47.204Z,4.92
2019-01-14T22:55:17.220Z,4.60
2019-01-14T22:57:46.888Z,5.20
2019-01-14T23:00:46.398Z,6.00
2019-01-14T23:03:15.804Z,5.20
2019-01-14T23:05:44.852Z,5.27
2019-01-14T23:08:14.424Z,5.70
2019-01-14T23:10:43.759Z,6.07
2019-01-14T23:13:12.887Z,7.60
2019-01-14T23:15:42.029Z,8.40
2019-01-14T23:18:11.405Z,8.60
2019-01-14T23:20:40.488Z,8.40
2019-01-14T23:23:09.557Z,8.80
2019-01-14T23:25:39.037Z,8.50
2019-01-14T23:28:08.122Z,8.40
2019-01-14T23:30:37.201Z,8.03
2019-01-14T23:33:06.670Z,8.13
2019-01-14T23:35:35.717Z,7.60
2019-01-14T23:38:05.086Z,7.13
2019-01-14T23:40:34.193Z,7.63
2019-01-14T23:43:03.637Z,8.37
2019-01-14T23:45:33.071Z,8.33
2019-01-14T23:48:02.197Z,8.43
2019-01-14T23:50:31.322Z,8.70
2019-01-14T23:53:00.414Z,8.67
2019-01-14T23:55:29.520Z,8.07
2019-01-14T23:57:58.612Z,7.20
